sensor_id;sensor_type;location;lat;lon;timestamp;P1;durP1;ratioP1;P2;durP2;ratioP2
9783;SDS011;4931;44.874;-1.092;2023-11-21T00:02:20;26.23;;;3.10;;
9783;SDS011;4931;44.874;-1.092;2023-11-21T00:04:47;21.15;;;3.28;;
9783;SDS011;4931;44.874;-1.092;2023-11-21T00:07:13;23.17;;;3.42;;
9783;SDS011;4931;44.874;-1.092;2023-11-21T00:09:39;15.25;;;2.67;;
9783;SDS011;4931;44.874;-1.092;2023-11-21T00:12:06;24.10;;;3.45;;
9783;SDS011;4931;44.874;-1.092;2023-11-21T00:14:35;19.65;;;2.80;;
9783;SDS011;4931;44.874;-1.092;2023-11-21T00:17:01;23.70;;;2.80;;
9783;SDS011;4931;44.874;-1.092;2023-11-21T00:19:27;26.05;;;3.17;;
9783;SDS011;4931;44.874;-1.092;2023-11-21T00:21:52;22.55;;;3.05;;
9783;SDS011;4931;44.874;-1.092;2023-11-21T00:24:18;17.88;;;3.17;;
9783;SDS011;4931;44.874;-1.092;2023-11-21T00:26:43;26.35;;;3.10;;
9783;SDS011;4931;44.874;-1.092;2023-11-21T00:29:09;28.63;;;3.60;;
9783;SDS011;4931;44.874;-1.092;2023-11-21T00:31:36;25.75;;;3.10;;
9783;SDS011;4931;44.874;-1.092;2023-11-21T00:34:05;28.33;;;3.50;;
9783;SDS011;4931;44.874;-1.092;2023-11-21T00:36:33;31.02;;;3.75;;
9783;SDS011;4931;44.874;-1.092;2023-11-21T00:38:59;27.27;;;3.55;;
9783;SDS011;4931;44.874;-1.092;2023-11-21T00:41:24;23.95;;;3.40;;
9783;SDS011;4931;44.874;-1.092;2023-11-21T00:43:52;33.88;;;3.75;;
9783;SDS011;4931;44.874;-1.092;2023-11-21T00:46:18;28.33;;;3.22;;
9783;SDS011;4931;44.874;-1.092;2023-11-21T00:48:44;26.38;;;3.40;;
9783;SDS011;4931;44.874;-1.092;2023-11-21T00:51:09;30.17;;;3.38;;
9783;SDS011;4931;44.874;-1.092;2023-11-21T00:53:35;27.52;;;3.55;;
9783;SDS011;4931;44.874;-1.092;2023-11-21T00:56:00;27.55;;;3.33;;
9783;SDS011;4931;44.874;-1.092;2023-11-21T00:58:26;30.20;;;3.78;;
9783;SDS011;4931;44.874;-1.092;2023-11-21T01:00:51;31.63;;;3.63;;
9783;SDS011;4931;44.874;-1.092;2023-11-21T01:03:17;26.88;;;3.47;;
9783;SDS011;4931;44.874;-1.092;2023-11-21T01:05:43;22.33;;;3.10;;
9783;SDS011;4931;44.874;-1.092;2023-11-21T01:08:09;24.42;;;2.90;;
9783;SDS011;4931;44.874;-1.092;2023-11-21T01:10:35;28.08;;;3.42;;
9783;SDS011;4931;44.874;-1.092;2023-11-21T01:13:01;16.48;;;2.58;;
9783;SDS011;4931;44.874;-1.092;2023-11-21T01:15:26;25.58;;;2.92;;
9783;SDS011;4931;44.874;-1.092;2023-11-21T01:17:52;18.85;;;2.60;;
9783;SDS011;4931;44.874;-1.092;2023-11-21T01:20:18;18.55;;;2.53;;
9783;SDS011;4931;44.874;-1.092;2023-11-21T01:22:43;19.48;;;2.92;;
9783;SDS011;4931;44.874;-1.092;2023-11-21T01:25:09;22.02;;;3.28;;
9783;SDS011;4931;44.874;-1.092;2023-11-21T01:27:35;29.52;;;2.75;;
9783;SDS011;4931;44.874;-1.092;2023-11-21T01:30:02;26.15;;;3.38;;
9783;SDS011;4931;44.874;-1.092;2023-11-21T01:32:28;22.75;;;2.88;;
9783;SDS011;4931;44.874;-1.092;2023-11-21T01:34:54;25.92;;;3.03;;
9783;SDS011;4931;44.874;-1.092;2023-11-21T01:37:20;18.65;;;2.83;;
9783;SDS011;4931;44.874;-1.092;2023-11-21T01:39:48;24.33;;;2.72;;
9783;SDS011;4931;44.874;-1.092;2023-11-21T01:42:14;17.25;;;2.90;;
9783;SDS011;4931;44.874;-1.092;2023-11-21T01:44:39;18.40;;;2.55;;
9783;SDS011;4931;44.874;-1.092;2023-11-21T01:47:05;18.30;;;2.42;;
9783;SDS011;4931;44.874;-1.092;2023-11-21T01:49:32;16.05;;;2.40;;
9783;SDS011;4931;44.874;-1.092;2023-11-21T01:51:58;20.73;;;2.50;;
9783;SDS011;4931;44.874;-1.092;2023-11-21T01:54:24;17.30;;;2.42;;
9783;SDS011;4931;44.874;-1.092;2023-11-21T01:56:50;18.13;;;2.17;;
9783;SDS011;4931;44.874;-1.092;2023-11-21T01:59:17;17.98;;;2.20;;
9783;SDS011;4931;44.874;-1.092;2023-11-21T02:01:45;10.25;;;1.95;;
9783;SDS011;4931;44.874;-1.092;2023-11-21T02:04:12;17.15;;;2.35;;
9783;SDS011;4931;44.874;-1.092;2023-11-21T02:06:38;20.50;;;2.50;;
9783;SDS011;4931;44.874;-1.092;2023-11-21T02:09:04;15.43;;;2.38;;
9783;SDS011;4931;44.874;-1.092;2023-11-21T02:11:30;15.82;;;2.25;;
9783;SDS011;4931;44.874;-1.092;2023-11-21T02:13:57;21.75;;;2.85;;
9783;SDS011;4931;44.874;-1.092;2023-11-21T02:16:24;17.00;;;2.17;;
9783;SDS011;4931;44.874;-1.092;2023-11-21T02:18:50;15.13;;;2.05;;
9783;SDS011;4931;44.874;-1.092;2023-11-21T02:21:17;12.13;;;2.05;;
9783;SDS011;4931;44.874;-1.092;2023-11-21T02:23:44;20.23;;;2.35;;
9783;SDS011;4931;44.874;-1.092;2023-11-21T02:26:11;18.65;;;2.10;;
9783;SDS011;4931;44.874;-1.092;2023-11-21T02:28:37;11.73;;;1.92;;
9783;SDS011;4931;44.874;-1.092;2023-11-21T02:31:04;17.73;;;2.35;;
9783;SDS011;4931;44.874;-1.092;2023-11-21T02:33:30;12.93;;;1.98;;
9783;SDS011;4931;44.874;-1.092;2023-11-21T02:35:59;14.77;;;1.75;;
9783;SDS011;4931;44.874;-1.092;2023-11-21T02:38:25;13.63;;;1.88;;
9783;SDS011;4931;44.874;-1.092;2023-11-21T02:40:51;17.00;;;2.10;;
9783;SDS011;4931;44.874;-1.092;2023-11-21T02:43:16;14.75;;;1.88;;
9783;SDS011;4931;44.874;-1.092;2023-11-21T02:45:42;16.50;;;1.92;;
9783;SDS011;4931;44.874;-1.092;2023-11-21T02:48:07;12.73;;;2.05;;
9783;SDS011;4931;44.874;-1.092;2023-11-21T02:50:33;15.45;;;1.92;;
9783;SDS011;4931;44.874;-1.092;2023-11-21T02:53:00;16.92;;;2.20;;
9783;SDS011;4931;44.874;-1.092;2023-11-21T02:55:26;12.10;;;2.17;;
9783;SDS011;4931;44.874;-1.092;2023-11-21T02:57:52;17.05;;;2.28;;
9783;SDS011;4931;44.874;-1.092;2023-11-21T03:00:17;14.93;;;2.20;;
9783;SDS011;4931;44.874;-1.092;2023-11-21T03:02:43;18.38;;;2.33;;
9783;SDS011;4931;44.874;-1.092;2023-11-21T03:05:09;18.30;;;2.35;;
9783;SDS011;4931;44.874;-1.092;2023-11-21T03:07:39;13.93;;;1.92;;
9783;SDS011;4931;44.874;-1.092;2023-11-21T03:10:06;13.50;;;2.08;;
9783;SDS011;4931;44.874;-1.092;2023-11-21T03:12:34;14.43;;;2.38;;
9783;SDS011;4931;44.874;-1.092;2023-11-21T03:15:00;15.48;;;1.90;;
9783;SDS011;4931;44.874;-1.092;2023-11-21T03:17:26;15.40;;;2.10;;
9783;SDS011;4931;44.874;-1.092;2023-11-21T03:19:52;15.23;;;2.08;;
9783;SDS011;4931;44.874;-1.092;2023-11-21T03:22:18;15.68;;;2.55;;
9783;SDS011;4931;44.874;-1.092;2023-11-21T03:24:44;19.02;;;2.17;;
9783;SDS011;4931;44.874;-1.092;2023-11-21T03:27:09;12.55;;;2.20;;
9783;SDS011;4931;44.874;-1.092;2023-11-21T03:29:35;16.90;;;1.98;;
9783;SDS011;4931;44.874;-1.092;2023-11-21T03:32:00;10.95;;;1.77;;
9783;SDS011;4931;44.874;-1.092;2023-11-21T03:34:27;16.35;;;2.20;;
9783;SDS011;4931;44.874;-1.092;2023-11-21T03:36:53;17.20;;;2.40;;
9783;SDS011;4931;44.874;-1.092;2023-11-21T03:39:22;13.77;;;2.38;;
9783;SDS011;4931;44.874;-1.092;2023-11-21T03:41:47;18.48;;;2.28;;
9783;SDS011;4931;44.874;-1.092;2023-11-21T03:44:13;18.08;;;2.47;;
9783;SDS011;4931;44.874;-1.092;2023-11-21T03:46:39;15.02;;;2.00;;
9783;SDS011;4931;44.874;-1.092;2023-11-21T03:49:05;19.73;;;2.38;;
9783;SDS011;4931;44.874;-1.092;2023-11-21T03:51:30;20.67;;;2.20;;
9783;SDS011;4931;44.874;-1.092;2023-11-21T03:53:55;15.75;;;2.30;;
9783;SDS011;4931;44.874;-1.092;2023-11-21T03:56:21;15.32;;;2.13;;
9783;SDS011;4931;44.874;-1.092;2023-11-21T03:58:47;10.50;;;1.80;;
9783;SDS011;4931;44.874;-1.092;2023-11-21T04:01:23;11.18;;;2.03;;
9783;SDS011;4931;44.874;-1.092;2023-11-21T04:03:49;17.65;;;2.40;;
9783;SDS011;4931;44.874;-1.092;2023-11-21T04:06:15;16.88;;;2.35;;
9783;SDS011;4931;44.874;-1.092;2023-11-21T04:08:42;13.35;;;1.80;;
9783;SDS011;4931;44.874;-1.092;2023-11-21T04:11:10;16.50;;;2.38;;
9783;SDS011;4931;44.874;-1.092;2023-11-21T04:13:39;17.33;;;2.63;;
9783;SDS011;4931;44.874;-1.092;2023-11-21T04:16:08;15.05;;;2.55;;
9783;SDS011;4931;44.874;-1.092;2023-11-21T04:18:37;10.27;;;1.80;;
9783;SDS011;4931;44.874;-1.092;2023-11-21T04:21:04;18.48;;;2.63;;
9783;SDS011;4931;44.874;-1.092;2023-11-21T04:23:30;17.33;;;2.38;;
9783;SDS011;4931;44.874;-1.092;2023-11-21T04:25:57;20.50;;;2.88;;
9783;SDS011;4931;44.874;-1.092;2023-11-21T04:28:23;18.60;;;2.17;;
9783;SDS011;4931;44.874;-1.092;2023-11-21T04:30:49;15.10;;;2.10;;
9783;SDS011;4931;44.874;-1.092;2023-11-21T04:33:15;17.85;;;2.13;;
9783;SDS011;4931;44.874;-1.092;2023-11-21T04:35:41;14.95;;;2.53;;
9783;SDS011;4931;44.874;-1.092;2023-11-21T04:38:06;17.60;;;2.22;;
9783;SDS011;4931;44.874;-1.092;2023-11-21T04:40:32;10.02;;;1.75;;
9783;SDS011;4931;44.874;-1.092;2023-11-21T04:42:57;13.38;;;2.20;;
9783;SDS011;4931;44.874;-1.092;2023-11-21T04:45:23;15.63;;;3.38;;
9783;SDS011;4931;44.874;-1.092;2023-11-21T04:47:48;14.27;;;3.03;;
9783;SDS011;4931;44.874;-1.092;2023-11-21T04:50:14;18.55;;;2.88;;
9783;SDS011;4931;44.874;-1.092;2023-11-21T04:52:39;15.68;;;2.53;;
9783;SDS011;4931;44.874;-1.092;2023-11-21T04:55:05;18.48;;;2.67;;
9783;SDS011;4931;44.874;-1.092;2023-11-21T04:57:34;15.85;;;2.65;;
9783;SDS011;4931;44.874;-1.092;2023-11-21T05:00:00;17.98;;;2.75;;
9783;SDS011;4931;44.874;-1.092;2023-11-21T05:02:25;12.50;;;2.55;;
9783;SDS011;4931;44.874;-1.092;2023-11-21T05:04:51;14.82;;;2.30;;
9783;SDS011;4931;44.874;-1.092;2023-11-21T05:07:16;17.30;;;2.47;;
9783;SDS011;4931;44.874;-1.092;2023-11-21T05:09:42;16.08;;;2.40;;
9783;SDS011;4931;44.874;-1.092;2023-11-21T05:12:09;9.60;;;1.98;;
9783;SDS011;4931;44.874;-1.092;2023-11-21T05:14:35;13.75;;;1.80;;
9783;SDS011;4931;44.874;-1.092;2023-11-21T05:17:01;16.42;;;2.33;;
9783;SDS011;4931;44.874;-1.092;2023-11-21T05:19:26;10.98;;;2.40;;
9783;SDS011;4931;44.874;-1.092;2023-11-21T05:21:52;11.73;;;2.33;;
9783;SDS011;4931;44.874;-1.092;2023-11-21T05:24:17;11.55;;;2.30;;
9783;SDS011;4931;44.874;-1.092;2023-11-21T05:26:43;15.43;;;2.17;;
9783;SDS011;4931;44.874;-1.092;2023-11-21T05:29:08;16.92;;;2.30;;
9783;SDS011;4931;44.874;-1.092;2023-11-21T05:31:35;17.77;;;2.30;;
9783;SDS011;4931;44.874;-1.092;2023-11-21T05:34:01;19.63;;;2.95;;
9783;SDS011;4931;44.874;-1.092;2023-11-21T05:36:28;13.52;;;2.30;;
9783;SDS011;4931;44.874;-1.092;2023-11-21T05:38:53;10.82;;;2.60;;
9783;SDS011;4931;44.874;-1.092;2023-11-21T05:41:19;16.50;;;2.65;;
9783;SDS011;4931;44.874;-1.092;2023-11-21T05:43:44;11.88;;;2.03;;
9783;SDS011;4931;44.874;-1.092;2023-11-21T05:46:10;13.15;;;2.25;;
9783;SDS011;4931;44.874;-1.092;2023-11-21T05:48:35;14.02;;;2.85;;
9783;SDS011;4931;44.874;-1.092;2023-11-21T05:51:03;18.60;;;3.10;;
9783;SDS011;4931;44.874;-1.092;2023-11-21T05:53:33;20.65;;;2.63;;
9783;SDS011;4931;44.874;-1.092;2023-11-21T05:55:59;16.58;;;2.53;;
9783;SDS011;4931;44.874;-1.092;2023-11-21T05:58:25;13.75;;;2.50;;
9783;SDS011;4931;44.874;-1.092;2023-11-21T06:00:50;18.38;;;2.90;;
9783;SDS011;4931;44.874;-1.092;2023-11-21T06:03:16;18.08;;;3.00;;
9783;SDS011;4931;44.874;-1.092;2023-11-21T06:05:42;20.42;;;2.90;;
9783;SDS011;4931;44.874;-1.092;2023-11-21T06:08:08;21.27;;;2.78;;
9783;SDS011;4931;44.874;-1.092;2023-11-21T06:10:34;20.13;;;3.33;;
9783;SDS011;4931;44.874;-1.092;2023-11-21T06:12:59;22.08;;;3.03;;
9783;SDS011;4931;44.874;-1.092;2023-11-21T06:15:25;22.38;;;3.50;;
9783;SDS011;4931;44.874;-1.092;2023-11-21T06:17:50;18.50;;;3.13;;
9783;SDS011;4931;44.874;-1.092;2023-11-21T06:20:19;16.88;;;3.15;;
9783;SDS011;4931;44.874;-1.092;2023-11-21T06:22:47;18.35;;;3.38;;
9783;SDS011;4931;44.874;-1.092;2023-11-21T06:25:14;18.33;;;2.97;;
9783;SDS011;4931;44.874;-1.092;2023-11-21T06:27:43;17.92;;;2.88;;
9783;SDS011;4931;44.874;-1.092;2023-11-21T06:30:10;17.53;;;2.90;;
9783;SDS011;4931;44.874;-1.092;2023-11-21T06:32:37;14.18;;;3.03;;
9783;SDS011;4931;44.874;-1.092;2023-11-21T06:35:03;17.30;;;3.00;;
9783;SDS011;4931;44.874;-1.092;2023-11-21T06:37:30;23.08;;;3.60;;
9783;SDS011;4931;44.874;-1.092;2023-11-21T06:39:56;13.00;;;3.00;;
9783;SDS011;4931;44.874;-1.092;2023-11-21T06:42:23;15.13;;;3.03;;
9783;SDS011;4931;44.874;-1.092;2023-11-21T06:44:49;18.55;;;3.20;;
9783;SDS011;4931;44.874;-1.092;2023-11-21T06:47:17;15.07;;;2.95;;
9783;SDS011;4931;44.874;-1.092;2023-11-21T06:49:43;16.05;;;3.03;;
9783;SDS011;4931;44.874;-1.092;2023-11-21T06:52:08;20.63;;;3.40;;
9783;SDS011;4931;44.874;-1.092;2023-11-21T06:54:34;22.85;;;3.85;;
9783;SDS011;4931;44.874;-1.092;2023-11-21T06:56:59;18.60;;;3.40;;
9783;SDS011;4931;44.874;-1.092;2023-11-21T06:59:25;16.02;;;3.65;;
9783;SDS011;4931;44.874;-1.092;2023-11-21T07:01:53;19.50;;;3.72;;
9783;SDS011;4931;44.874;-1.092;2023-11-21T07:04:18;17.33;;;4.15;;
9783;SDS011;4931;44.874;-1.092;2023-11-21T07:06:44;19.42;;;3.90;;
9783;SDS011;4931;44.874;-1.092;2023-11-21T07:09:09;21.00;;;4.03;;
9783;SDS011;4931;44.874;-1.092;2023-11-21T07:11:36;22.40;;;4.22;;
9783;SDS011;4931;44.874;-1.092;2023-11-21T07:14:03;21.38;;;4.03;;
9783;SDS011;4931;44.874;-1.092;2023-11-21T07:16:34;22.50;;;3.50;;
9783;SDS011;4931;44.874;-1.092;2023-11-21T07:19:02;26.40;;;4.40;;
9783;SDS011;4931;44.874;-1.092;2023-11-21T07:21:31;16.23;;;3.53;;
9783;SDS011;4931;44.874;-1.092;2023-11-21T07:24:00;18.95;;;3.45;;
9783;SDS011;4931;44.874;-1.092;2023-11-21T07:26:27;14.77;;;3.67;;
9783;SDS011;4931;44.874;-1.092;2023-11-21T07:28:53;18.92;;;3.35;;
9783;SDS011;4931;44.874;-1.092;2023-11-21T07:31:18;16.00;;;3.13;;
9783;SDS011;4931;44.874;-1.092;2023-11-21T07:33:45;14.65;;;3.42;;
9783;SDS011;4931;44.874;-1.092;2023-11-21T07:36:12;13.90;;;2.90;;
9783;SDS011;4931;44.874;-1.092;2023-11-21T07:38:38;12.77;;;3.05;;
9783;SDS011;4931;44.874;-1.092;2023-11-21T07:41:04;20.48;;;4.30;;
9783;SDS011;4931;44.874;-1.092;2023-11-21T07:43:30;18.25;;;3.90;;
9783;SDS011;4931;44.874;-1.092;2023-11-21T07:46:00;20.70;;;3.88;;
9783;SDS011;4931;44.874;-1.092;2023-11-21T07:48:28;16.98;;;4.03;;
9783;SDS011;4931;44.874;-1.092;2023-11-21T07:50:54;20.10;;;3.72;;
9783;SDS011;4931;44.874;-1.092;2023-11-21T07:53:19;20.17;;;3.83;;
9783;SDS011;4931;44.874;-1.092;2023-11-21T07:55:44;21.55;;;3.47;;
9783;SDS011;4931;44.874;-1.092;2023-11-21T07:58:12;18.38;;;4.32;;
9783;SDS011;4931;44.874;-1.092;2023-11-21T08:00:38;21.70;;;4.53;;
9783;SDS011;4931;44.874;-1.092;2023-11-21T08:03:04;17.90;;;4.25;;
9783;SDS011;4931;44.874;-1.092;2023-11-21T08:05:30;24.40;;;4.65;;
9783;SDS011;4931;44.874;-1.092;2023-11-21T08:07:56;18.25;;;3.75;;
9783;SDS011;4931;44.874;-1.092;2023-11-21T08:10:22;19.15;;;3.72;;
9783;SDS011;4931;44.874;-1.092;2023-11-21T08:12:47;27.60;;;3.63;;
9783;SDS011;4931;44.874;-1.092;2023-11-21T08:15:13;24.88;;;3.25;;
9783;SDS011;4931;44.874;-1.092;2023-11-21T08:17:39;13.10;;;2.17;;
9783;SDS011;4931;44.874;-1.092;2023-11-21T08:20:05;11.73;;;2.70;;
9783;SDS011;4931;44.874;-1.092;2023-11-21T08:22:31;19.48;;;2.38;;
9783;SDS011;4931;44.874;-1.092;2023-11-21T08:24:57;16.77;;;2.83;;
9783;SDS011;4931;44.874;-1.092;2023-11-21T08:27:23;10.85;;;2.00;;
9783;SDS011;4931;44.874;-1.092;2023-11-21T08:29:48;10.27;;;2.10;;
9783;SDS011;4931;44.874;-1.092;2023-11-21T08:32:14;9.20;;;1.98;;
9783;SDS011;4931;44.874;-1.092;2023-11-21T08:34:40;14.68;;;2.20;;
9783;SDS011;4931;44.874;-1.092;2023-11-21T08:37:08;7.60;;;1.80;;
9783;SDS011;4931;44.874;-1.092;2023-11-21T08:39:33;12.70;;;1.95;;
9783;SDS011;4931;44.874;-1.092;2023-11-21T08:41:58;16.67;;;2.28;;
9783;SDS011;4931;44.874;-1.092;2023-11-21T08:44:24;16.33;;;2.72;;
9783;SDS011;4931;44.874;-1.092;2023-11-21T08:46:50;16.35;;;2.53;;
9783;SDS011;4931;44.874;-1.092;2023-11-21T08:49:15;13.48;;;2.17;;
9783;SDS011;4931;44.874;-1.092;2023-11-21T08:51:41;11.13;;;2.65;;
9783;SDS011;4931;44.874;-1.092;2023-11-21T08:54:06;11.57;;;2.22;;
9783;SDS011;4931;44.874;-1.092;2023-11-21T08:56:33;15.57;;;2.40;;
9783;SDS011;4931;44.874;-1.092;2023-11-21T08:58:59;8.05;;;2.20;;
9783;SDS011;4931;44.874;-1.092;2023-11-21T09:01:28;12.63;;;2.42;;
9783;SDS011;4931;44.874;-1.092;2023-11-21T09:03:57;14.00;;;2.42;;
9783;SDS011;4931;44.874;-1.092;2023-11-21T09:06:23;14.27;;;2.20;;
9783;SDS011;4931;44.874;-1.092;2023-11-21T09:08:49;13.50;;;2.38;;
9783;SDS011;4931;44.874;-1.092;2023-11-21T09:11:14;12.40;;;2.20;;
9783;SDS011;4931;44.874;-1.092;2023-11-21T09:13:40;9.32;;;1.95;;
9783;SDS011;4931;44.874;-1.092;2023-11-21T09:16:05;11.30;;;2.33;;
9783;SDS011;4931;44.874;-1.092;2023-11-21T09:18:31;12.65;;;2.08;;
9783;SDS011;4931;44.874;-1.092;2023-11-21T09:20:57;12.52;;;1.90;;
9783;SDS011;4931;44.874;-1.092;2023-11-21T09:23:23;11.43;;;2.15;;
9783;SDS011;4931;44.874;-1.092;2023-11-21T09:25:49;11.57;;;2.38;;
9783;SDS011;4931;44.874;-1.092;2023-11-21T09:28:17;10.98;;;1.92;;
9783;SDS011;4931;44.874;-1.092;2023-11-21T09:30:42;10.43;;;1.80;;
9783;SDS011;4931;44.874;-1.092;2023-11-21T09:33:08;14.35;;;2.00;;
9783;SDS011;4931;44.874;-1.092;2023-11-21T09:35:38;19.35;;;2.38;;
9783;SDS011;4931;44.874;-1.092;2023-11-21T09:38:03;15.25;;;1.98;;
9783;SDS011;4931;44.874;-1.092;2023-11-21T09:40:36;15.80;;;2.78;;
9783;SDS011;4931;44.874;-1.092;2023-11-21T09:43:06;17.52;;;2.80;;
9783;SDS011;4931;44.874;-1.092;2023-11-21T09:45:39;11.07;;;2.30;;
9783;SDS011;4931;44.874;-1.092;2023-11-21T09:48:05;16.02;;;2.60;;
9783;SDS011;4931;44.874;-1.092;2023-11-21T09:50:32;13.75;;;2.65;;
9783;SDS011;4931;44.874;-1.092;2023-11-21T09:53:17;14.50;;;2.35;;
9783;SDS011;4931;44.874;-1.092;2023-11-21T09:55:46;18.80;;;2.60;;
9783;SDS011;4931;44.874;-1.092;2023-11-21T09:58:13;10.82;;;2.35;;
9783;SDS011;4931;44.874;-1.092;2023-11-21T10:00:40;16.83;;;2.85;;
9783;SDS011;4931;44.874;-1.092;2023-11-21T10:03:07;19.20;;;3.10;;
9783;SDS011;4931;44.874;-1.092;2023-11-21T10:05:34;21.15;;;3.28;;
9783;SDS011;4931;44.874;-1.092;2023-11-21T10:08:00;22.98;;;3.67;;
9783;SDS011;4931;44.874;-1.092;2023-11-21T10:10:26;22.05;;;3.60;;
9783;SDS011;4931;44.874;-1.092;2023-11-21T10:12:57;19.35;;;3.25;;
9783;SDS011;4931;44.874;-1.092;2023-11-21T10:15:28;18.42;;;3.13;;
9783;SDS011;4931;44.874;-1.092;2023-11-21T10:17:54;20.20;;;9.27;;
9783;SDS011;4931;44.874;-1.092;2023-11-21T10:20:20;20.15;;;3.67;;
9783;SDS011;4931;44.874;-1.092;2023-11-21T10:22:50;21.08;;;3.53;;
9783;SDS011;4931;44.874;-1.092;2023-11-21T10:25:15;20.17;;;2.83;;
9783;SDS011;4931;44.874;-1.092;2023-11-21T10:27:43;20.33;;;2.70;;
9783;SDS011;4931;44.874;-1.092;2023-11-21T10:30:12;19.58;;;2.92;;
9783;SDS011;4931;44.874;-1.092;2023-11-21T10:32:38;14.10;;;2.47;;
9783;SDS011;4931;44.874;-1.092;2023-11-21T10:35:06;13.85;;;2.63;;
9783;SDS011;4931;44.874;-1.092;2023-11-21T10:37:44;14.65;;;2.42;;
9783;SDS011;4931;44.874;-1.092;2023-11-21T10:40:10;16.13;;;2.60;;
9783;SDS011;4931;44.874;-1.092;2023-11-21T10:42:39;14.32;;;2.60;;
9783;SDS011;4931;44.874;-1.092;2023-11-21T10:45:06;12.65;;;2.55;;
9783;SDS011;4931;44.874;-1.092;2023-11-21T10:47:38;15.20;;;2.45;;
9783;SDS011;4931;44.874;-1.092;2023-11-21T10:50:05;13.02;;;2.35;;
9783;SDS011;4931;44.874;-1.092;2023-11-21T10:52:31;15.45;;;2.50;;
9783;SDS011;4931;44.874;-1.092;2023-11-21T10:54:57;16.23;;;2.35;;
9783;SDS011;4931;44.874;-1.092;2023-11-21T10:57:24;11.35;;;2.30;;
9783;SDS011;4931;44.874;-1.092;2023-11-21T10:59:50;12.43;;;2.30;;
9783;SDS011;4931;44.874;-1.092;2023-11-21T11:02:25;14.93;;;2.20;;
9783;SDS011;4931;44.874;-1.092;2023-11-21T11:04:53;11.18;;;1.83;;
9783;SDS011;4931;44.874;-1.092;2023-11-21T11:07:25;16.05;;;2.20;;
9783;SDS011;4931;44.874;-1.092;2023-11-21T11:09:52;13.80;;;2.35;;
9783;SDS011;4931;44.874;-1.092;2023-11-21T11:12:19;13.10;;;2.20;;
9783;SDS011;4931;44.874;-1.092;2023-11-21T11:14:45;14.13;;;2.28;;
9783;SDS011;4931;44.874;-1.092;2023-11-21T11:17:11;13.07;;;2.50;;
9783;SDS011;4931;44.874;-1.092;2023-11-21T11:19:38;17.75;;;2.75;;
9783;SDS011;4931;44.874;-1.092;2023-11-21T11:25:19;16.73;;;2.47;;
9783;SDS011;4931;44.874;-1.092;2023-11-21T11:28:01;18.73;;;2.72;;
9783;SDS011;4931;44.874;-1.092;2023-11-21T11:39:02;12.02;;;1.80;;
9783;SDS011;4931;44.874;-1.092;2023-11-21T11:41:30;13.70;;;2.50;;
9783;SDS011;4931;44.874;-1.092;2023-11-21T11:44:02;13.15;;;2.00;;
9783;SDS011;4931;44.874;-1.092;2023-11-21T11:46:42;9.53;;;1.80;;
9783;SDS011;4931;44.874;-1.092;2023-11-21T11:51:36;13.13;;;2.10;;
9783;SDS011;4931;44.874;-1.092;2023-11-21T11:54:02;11.35;;;2.08;;
9783;SDS011;4931;44.874;-1.092;2023-11-21T11:56:29;11.40;;;1.90;;
9783;SDS011;4931;44.874;-1.092;2023-11-21T11:59:04;15.82;;;2.05;;
9783;SDS011;4931;44.874;-1.092;2023-11-21T12:01:31;8.80;;;1.60;;
9783;SDS011;4931;44.874;-1.092;2023-11-21T12:06:36;7.90;;;1.58;;
9783;SDS011;4931;44.874;-1.092;2023-11-21T12:09:02;12.45;;;1.63;;
9783;SDS011;4931;44.874;-1.092;2023-11-21T12:11:31;10.10;;;1.58;;
9783;SDS011;4931;44.874;-1.092;2023-11-21T12:13:57;8.88;;;1.40;;
9783;SDS011;4931;44.874;-1.092;2023-11-21T12:16:24;7.25;;;1.52;;
9783;SDS011;4931;44.874;-1.092;2023-11-21T12:18:52;11.10;;;1.98;;
9783;SDS011;4931;44.874;-1.092;2023-11-21T12:21:19;9.95;;;1.83;;
9783;SDS011;4931;44.874;-1.092;2023-11-21T12:23:45;10.40;;;1.50;;
9783;SDS011;4931;44.874;-1.092;2023-11-21T12:26:14;10.52;;;1.67;;
9783;SDS011;4931;44.874;-1.092;2023-11-21T12:28:39;8.50;;;1.75;;
9783;SDS011;4931;44.874;-1.092;2023-11-21T12:31:05;9.73;;;1.73;;
9783;SDS011;4931;44.874;-1.092;2023-11-21T12:33:32;11.10;;;1.92;;
9783;SDS011;4931;44.874;-1.092;2023-11-21T12:35:58;15.63;;;1.92;;
9783;SDS011;4931;44.874;-1.092;2023-11-21T12:38:23;10.68;;;2.03;;
9783;SDS011;4931;44.874;-1.092;2023-11-21T12:40:50;8.82;;;1.50;;
9783;SDS011;4931;44.874;-1.092;2023-11-21T12:43:15;9.85;;;1.90;;
9783;SDS011;4931;44.874;-1.092;2023-11-21T12:45:43;10.05;;;1.73;;
9783;SDS011;4931;44.874;-1.092;2023-11-21T12:48:09;15.30;;;1.80;;
9783;SDS011;4931;44.874;-1.092;2023-11-21T12:50:36;11.88;;;1.90;;
9783;SDS011;4931;44.874;-1.092;2023-11-21T12:53:07;11.43;;;1.92;;
9783;SDS011;4931;44.874;-1.092;2023-11-21T12:55:35;14.63;;;2.30;;
9783;SDS011;4931;44.874;-1.092;2023-11-21T12:58:05;12.18;;;2.00;;
9783;SDS011;4931;44.874;-1.092;2023-11-21T13:03:07;16.67;;;2.03;;
9783;SDS011;4931;44.874;-1.092;2023-11-21T13:05:34;15.25;;;1.75;;
9783;SDS011;4931;44.874;-1.092;2023-11-21T13:08:05;13.73;;;2.00;;
9783;SDS011;4931;44.874;-1.092;2023-11-21T13:10:38;11.18;;;1.98;;
9783;SDS011;4931;44.874;-1.092;2023-11-21T13:13:12;12.18;;;2.00;;
9783;SDS011;4931;44.874;-1.092;2023-11-21T13:15:49;13.40;;;2.00;;
9783;SDS011;4931;44.874;-1.092;2023-11-21T13:18:15;12.57;;;2.53;;
9783;SDS011;4931;44.874;-1.092;2023-11-21T13:20:42;16.92;;;2.50;;
9783;SDS011;4931;44.874;-1.092;2023-11-21T13:23:08;15.18;;;2.80;;
9783;SDS011;4931;44.874;-1.092;2023-11-21T13:25:37;17.75;;;2.80;;
9783;SDS011;4931;44.874;-1.092;2023-11-21T13:28:06;13.48;;;2.60;;
9783;SDS011;4931;44.874;-1.092;2023-11-21T13:30:32;14.85;;;2.00;;
9783;SDS011;4931;44.874;-1.092;2023-11-21T13:33:04;9.00;;;1.50;;
9783;SDS011;4931;44.874;-1.092;2023-11-21T13:35:39;10.40;;;2.10;;
9783;SDS011;4931;44.874;-1.092;2023-11-21T13:38:12;11.70;;;1.88;;
9783;SDS011;4931;44.874;-1.092;2023-11-21T13:40:40;13.10;;;1.77;;
9783;SDS011;4931;44.874;-1.092;2023-11-21T13:43:11;15.98;;;4.38;;
9783;SDS011;4931;44.874;-1.092;2023-11-21T13:45:41;16.70;;;3.05;;
9783;SDS011;4931;44.874;-1.092;2023-11-21T13:48:08;16.38;;;2.10;;
9783;SDS011;4931;44.874;-1.092;2023-11-21T13:50:45;13.18;;;2.00;;
9783;SDS011;4931;44.874;-1.092;2023-11-21T13:53:23;11.70;;;1.85;;
9783;SDS011;4931;44.874;-1.092;2023-11-21T13:55:52;15.05;;;2.40;;
9783;SDS011;4931;44.874;-1.092;2023-11-21T13:58:19;13.85;;;1.90;;
9783;SDS011;4931;44.874;-1.092;2023-11-21T14:01:00;16.55;;;1.65;;
9783;SDS011;4931;44.874;-1.092;2023-11-21T14:03:26;16.90;;;1.80;;
9783;SDS011;4931;44.874;-1.092;2023-11-21T14:06:04;16.60;;;2.00;;
9783;SDS011;4931;44.874;-1.092;2023-11-21T14:08:39;10.05;;;1.77;;
9783;SDS011;4931;44.874;-1.092;2023-11-21T14:11:06;13.68;;;1.77;;
9783;SDS011;4931;44.874;-1.092;2023-11-21T14:13:32;15.52;;;2.17;;
9783;SDS011;4931;44.874;-1.092;2023-11-21T14:15:58;7.40;;;1.30;;
9783;SDS011;4931;44.874;-1.092;2023-11-21T14:18:25;8.25;;;1.40;;
9783;SDS011;4931;44.874;-1.092;2023-11-21T14:21:15;7.80;;;1.73;;
9783;SDS011;4931;44.874;-1.092;2023-11-21T14:23:41;9.25;;;1.63;;
9783;SDS011;4931;44.874;-1.092;2023-11-21T14:26:08;12.60;;;1.58;;
9783;SDS011;4931;44.874;-1.092;2023-11-21T14:28:33;12.20;;;2.03;;
9783;SDS011;4931;44.874;-1.092;2023-11-21T14:31:00;9.77;;;1.80;;
9783;SDS011;4931;44.874;-1.092;2023-11-21T14:33:27;11.30;;;1.50;;
9783;SDS011;4931;44.874;-1.092;2023-11-21T14:35:52;7.93;;;1.70;;
9783;SDS011;4931;44.874;-1.092;2023-11-21T14:38:18;14.10;;;2.13;;
9783;SDS011;4931;44.874;-1.092;2023-11-21T14:40:43;9.80;;;1.77;;
9783;SDS011;4931;44.874;-1.092;2023-11-21T14:43:09;9.90;;;1.55;;
9783;SDS011;4931;44.874;-1.092;2023-11-21T14:45:35;10.50;;;1.75;;
9783;SDS011;4931;44.874;-1.092;2023-11-21T14:48:00;14.88;;;2.17;;
9783;SDS011;4931;44.874;-1.092;2023-11-21T14:50:29;12.43;;;1.95;;
9783;SDS011;4931;44.874;-1.092;2023-11-21T14:53:06;13.55;;;2.00;;
9783;SDS011;4931;44.874;-1.092;2023-11-21T14:55:33;10.52;;;1.60;;
9783;SDS011;4931;44.874;-1.092;2023-11-21T14:58:21;19.20;;;2.28;;
9783;SDS011;4931;44.874;-1.092;2023-11-21T15:00:53;13.55;;;2.13;;
9783;SDS011;4931;44.874;-1.092;2023-11-21T15:03:23;11.43;;;2.00;;
9783;SDS011;4931;44.874;-1.092;2023-11-21T15:05:58;16.15;;;2.13;;
9783;SDS011;4931;44.874;-1.092;2023-11-21T15:08:26;14.25;;;2.28;;